createdAt,value
2023-02-15T00:00:04.166Z,20.44
2023-02-15T00:01:04.175Z,20.46
2023-02-15T00:02:04.154Z,20.44
2023-02-15T00:03:04.173Z,20.46
2023-02-15T00:04:04.137Z,20.44
2023-02-15T00:05:04.250Z,20.46
2023-02-15T00:06:04.094Z,20.46
2023-02-15T00:07:04.109Z,20.46
2023-02-15T00:08:04.076Z,20.44
2023-02-15T00:09:04.088Z,20.44
2023-02-15T00:10:04.088Z,20.42
2023-02-15T00:11:04.076Z,20.42
2023-02-15T00:12:04.053Z,20.46
2023-02-15T00:13:04.016Z,20.44
2023-02-15T00:14:04.021Z,20.46
2023-02-15T00:15:04.002Z,20.46
2023-02-15T00:16:04.186Z,20.44
2023-02-15T00:17:03.983Z,20.42
2023-02-15T00:18:03.984Z,20.46
2023-02-15T00:19:03.955Z,20.46
2023-02-15T00:20:03.993Z,20.44
2023-02-15T00:21:03.937Z,20.46
2023-02-15T00:22:03.934Z,20.44
2023-02-15T00:23:03.926Z,20.46
2023-02-15T00:24:03.935Z,20.46
2023-02-15T00:25:03.912Z,20.46
2023-02-15T00:26:03.894Z,20.48
2023-02-15T00:27:03.873Z,20.46
2023-02-15T00:28:03.876Z,20.46
2023-02-15T00:29:03.974Z,20.46
2023-02-15T00:30:03.896Z,20.46
2023-02-15T00:31:03.963Z,20.44
2023-02-15T00:32:03.852Z,20.44
2023-02-15T00:33:03.811Z,20.44
2023-02-15T00:34:03.819Z,20.46
2023-02-15T00:35:03.798Z,20.48
2023-02-15T00:36:03.787Z,20.42
2023-02-15T00:37:03.791Z,20.46
2023-02-15T00:38:03.774Z,20.46
2023-02-15T00:39:03.747Z,20.46
2023-02-15T00:40:03.756Z,20.46
2023-02-15T00:41:03.729Z,20.44
2023-02-15T00:42:03.731Z,20.44
2023-02-15T00:43:03.724Z,20.44
2023-02-15T00:44:03.704Z,20.46
2023-02-15T00:45:03.688Z,20.46
2023-02-15T00:46:04.154Z,20.42
2023-02-15T00:47:03.729Z,20.44
2023-02-15T00:48:03.724Z,20.46
2023-02-15T00:49:03.693Z,20.46
2023-02-15T00:50:03.713Z,20.42
2023-02-15T00:51:03.625Z,20.46
2023-02-15T00:52:03.634Z,20.44
2023-02-15T00:53:03.599Z,20.46
2023-02-15T00:54:03.642Z,20.42
2023-02-15T00:55:03.577Z,20.48
2023-02-15T00:56:03.991Z,20.48
2023-02-15T00:57:03.567Z,20.48
2023-02-15T00:58:03.558Z,20.46
2023-02-15T00:59:03.538Z,20.44
2023-02-15T01:00:03.584Z,20.46
2023-02-15T01:01:03.547Z,20.46
2023-02-15T01:02:03.526Z,20.46
2023-02-15T01:03:03.499Z,20.46
2023-02-15T01:04:03.517Z,20.48
2023-02-15T01:05:03.470Z,20.46
2023-02-15T01:06:03.747Z,20.44
2023-02-15T01:07:03.447Z,20.44
2023-02-15T01:08:03.454Z,20.46
2023-02-15T01:09:03.445Z,20.44
2023-02-15T01:10:03.458Z,20.48
2023-02-15T01:11:03.407Z,20.46
2023-02-15T01:12:03.422Z,20.46
2023-02-15T01:13:03.387Z,20.44
2023-02-15T01:14:03.398Z,20.44
2023-02-15T01:15:03.407Z,20.48
2023-02-15T01:16:03.892Z,20.46
2023-02-15T01:17:03.356Z,20.46
2023-02-15T01:18:03.367Z,20.46
2023-02-15T01:19:03.348Z,20.46
2023-02-15T01:20:03.326Z,20.46
2023-02-15T01:21:03.305Z,20.46
2023-02-15T01:22:03.316Z,20.46
2023-02-15T01:23:03.289Z,20.44
2023-02-15T01:24:03.341Z,20.44
2023-02-15T01:25:03.260Z,20.44
2023-02-15T01:26:03.713Z,20.48
2023-02-15T01:27:03.243Z,20.48
2023-02-15T01:28:03.246Z,20.44
2023-02-15T01:29:03.238Z,20.46
2023-02-15T01:30:03.305Z,20.46
2023-02-15T01:31:03.229Z,20.44
2023-02-15T01:32:03.285Z,20.46
2023-02-15T01:33:03.187Z,20.44
2023-02-15T01:34:03.186Z,20.46
2023-02-15T01:35:03.159Z,20.46
2023-02-15T01:36:03.533Z,20.48
2023-02-15T01:37:03.141Z,20.44
2023-02-15T01:38:03.164Z,20.46
2023-02-15T01:39:03.124Z,20.44
2023-02-15T01:40:03.122Z,20.44
2023-02-15T01:41:03.093Z,20.44
2023-02-15T01:42:03.139Z,20.46
2023-02-15T01:43:03.074Z,20.44
2023-02-15T01:44:03.104Z,20.44
2023-02-15T01:45:03.078Z,20.44
2023-02-15T01:46:03.493Z,20.46
2023-02-15T01:47:03.031Z,20.42
2023-02-15T01:48:03.180Z,20.44
2023-02-15T01:49:03.039Z,20.44
2023-02-15T01:50:03.019Z,20.44
2023-02-15T01:51:03.237Z,20.42
2023-02-15T01:52:03.010Z,20.46
2023-02-15T01:53:02.968Z,20.46
2023-02-15T01:54:02.977Z,20.44
2023-02-15T01:55:02.966Z,20.44
2023-02-15T01:56:03.337Z,20.46
2023-02-15T01:57:02.952Z,20.46
2023-02-15T01:58:02.931Z,20.42
2023-02-15T01:59:02.903Z,20.46
2023-02-15T02:00:02.930Z,20.42
2023-02-15T02:01:02.884Z,20.42
2023-02-15T02:02:02.891Z,20.44
2023-02-15T02:03:02.949Z,20.42
2023-02-15T02:04:02.871Z,20.46
2023-02-15T02:05:02.839Z,20.46
2023-02-15T02:06:03.138Z,20.44
2023-02-15T02:07:02.840Z,20.44
2023-02-15T02:08:02.827Z,20.42
2023-02-15T02:09:02.798Z,20.42
2023-02-15T02:10:02.809Z,20.44
2023-02-15T02:11:02.792Z,20.41
2023-02-15T02:12:02.810Z,20.46
2023-02-15T02:13:02.756Z,20.44
2023-02-15T02:14:02.765Z,20.44
2023-02-15T02:15:02.731Z,20.42
2023-02-15T02:16:03.344Z,20.44
2023-02-15T02:17:02.732Z,20.44
2023-02-15T02:18:02.744Z,20.44
2023-02-15T02:19:02.712Z,20.46
2023-02-15T02:20:02.714Z,20.44
2023-02-15T02:21:02.691Z,20.44
2023-02-15T02:22:02.680Z,20.44
2023-02-15T02:23:02.668Z,20.42
2023-02-15T02:24:02.657Z,20.44
2023-02-15T02:25:02.650Z,20.42
2023-02-15T02:26:02.876Z,20.44
2023-02-15T02:27:02.602Z,20.44
2023-02-15T02:28:02.609Z,20.44
2023-02-15T02:29:02.587Z,20.42
2023-02-15T02:30:02.633Z,20.44
2023-02-15T02:31:02.645Z,20.44
2023-02-15T02:32:02.665Z,20.44
2023-02-15T02:33:02.545Z,20.42
2023-02-15T02:34:02.557Z,20.44
2023-02-15T02:35:02.523Z,20.41
2023-02-15T02:36:03.119Z,20.44
2023-02-15T02:37:02.503Z,20.46
2023-02-15T02:38:02.519Z,20.42
2023-02-15T02:39:02.479Z,20.46
2023-02-15T02:40:02.490Z,20.44
2023-02-15T02:41:02.476Z,20.44
2023-02-15T02:42:02.485Z,20.44
2023-02-15T02:43:02.439Z,20.44
2023-02-15T02:44:02.451Z,20.44
2023-02-15T02:45:02.412Z,20.42
2023-02-15T02:46:02.905Z,20.44
2023-02-15T02:47:02.391Z,20.42
2023-02-15T02:48:02.403Z,20.42
2023-02-15T02:49:02.395Z,20.42
2023-02-15T02:50:02.386Z,20.44
2023-02-15T02:52:12.745Z,20.46
2023-02-15T02:53:13.726Z,20.44
2023-02-15T02:54:13.719Z,20.42
2023-02-15T02:55:13.745Z,20.44
2023-02-15T02:56:13.683Z,20.44
2023-02-15T02:57:13.686Z,20.44
2023-02-15T02:58:13.662Z,20.42
2023-02-15T02:59:13.667Z,20.44
2023-02-15T03:00:13.646Z,20.42
2023-02-15T03:01:13.670Z,20.42
2023-02-15T03:02:13.630Z,20.44
2023-02-15T03:03:13.630Z,20.42
2023-02-15T03:04:13.608Z,20.44
2023-02-15T03:05:13.620Z,20.44
2023-02-15T03:06:13.598Z,20.46
2023-02-15T03:07:13.585Z,20.48
2023-02-15T03:08:13.562Z,20.46
2023-02-15T03:09:13.566Z,20.48
2023-02-15T03:10:13.547Z,20.46
2023-02-15T03:11:13.580Z,20.48
2023-02-15T03:12:13.529Z,20.48
2023-02-15T03:13:13.534Z,20.50
2023-02-15T03:14:13.501Z,20.48
2023-02-15T03:15:13.547Z,20.50
2023-02-15T03:16:13.538Z,20.50
2023-02-15T03:17:13.493Z,20.50
2023-02-15T03:18:13.466Z,20.51
2023-02-15T03:19:13.477Z,20.51
2023-02-15T03:20:13.457Z,20.51
2023-02-15T03:21:13.445Z,20.51
2023-02-15T03:22:13.440Z,20.50
2023-02-15T03:23:13.424Z,20.53
2023-02-15T03:24:14.898Z,20.50
2023-02-15T03:25:13.422Z,20.48
2023-02-15T03:26:13.416Z,20.48
2023-02-15T03:27:13.386Z,20.50
2023-02-15T03:28:13.370Z,20.50
2023-02-15T03:29:13.360Z,20.48
2023-02-15T03:30:13.405Z,20.46
2023-02-15T03:31:13.533Z,20.48
2023-02-15T03:32:13.385Z,20.48
2023-02-15T03:33:13.317Z,20.48
2023-02-15T03:34:13.301Z,20.46
2023-02-15T03:35:13.324Z,20.48
2023-02-15T03:36:13.293Z,20.48
2023-02-15T03:37:13.289Z,20.48
2023-02-15T03:38:13.294Z,20.48
2023-02-15T03:39:13.264Z,20.46
2023-02-15T03:40:13.243Z,20.46
2023-02-15T03:41:13.240Z,20.44
2023-02-15T03:42:13.222Z,20.48
2023-02-15T03:43:13.232Z,20.42
2023-02-15T03:44:13.214Z,20.46
2023-02-15T03:45:13.208Z,20.44
2023-02-15T03:46:13.274Z,20.44
2023-02-15T03:47:13.186Z,20.46
2023-02-15T03:48:13.171Z,20.44
2023-02-15T03:49:13.250Z,20.44
2023-02-15T03:50:13.133Z,20.46
2023-02-15T03:51:13.131Z,20.46
2023-02-15T03:52:13.147Z,20.44
2023-02-15T03:53:13.141Z,20.46
2023-02-15T03:54:13.111Z,20.42
2023-02-15T03:55:13.098Z,20.44
2023-02-15T03:56:13.069Z,20.42
2023-02-15T03:57:13.079Z,20.42
2023-02-15T03:58:13.118Z,20.46
2023-02-15T03:59:13.059Z,20.44
2023-02-15T04:00:13.033Z,20.44
2023-02-15T04:01:13.147Z,20.46
2023-02-15T04:02:13.033Z,20.44
2023-02-15T04:03:13.095Z,20.44
2023-02-15T04:04:13.016Z,20.46
2023-02-15T04:05:12.998Z,20.44
2023-02-15T04:06:12.973Z,20.42
2023-02-15T04:07:12.978Z,20.44
2023-02-15T04:08:12.960Z,20.46
2023-02-15T04:09:12.987Z,20.44
2023-02-15T04:10:12.939Z,20.41
2023-02-15T04:11:12.935Z,20.42
2023-02-15T04:12:12.906Z,20.44
2023-02-15T04:13:12.907Z,20.46
2023-02-15T04:14:12.884Z,20.46
2023-02-15T04:15:12.921Z,20.46
2023-02-15T04:16:12.913Z,20.48
2023-02-15T04:17:12.871Z,20.48
2023-02-15T04:18:12.838Z,20.50
2023-02-15T04:19:12.848Z,20.51
2023-02-15T04:20:12.836Z,20.50
2023-02-15T04:21:12.828Z,20.51
2023-02-15T04:22:12.819Z,20.51
2023-02-15T04:23:12.835Z,20.51
2023-02-15T04:24:12.777Z,20.53
2023-02-15T04:25:12.824Z,20.54
2023-02-15T04:26:12.822Z,20.56
2023-02-15T04:27:12.797Z,20.56
2023-02-15T04:28:12.695Z,20.54
2023-02-15T04:29:12.680Z,20.56
2023-02-15T04:30:12.718Z,20.56
2023-02-15T04:31:12.803Z,20.54
2023-02-15T04:32:12.738Z,20.56
2023-02-15T04:33:12.650Z,20.53
2023-02-15T04:34:12.625Z,20.56
2023-02-15T04:35:12.627Z,20.54
2023-02-15T04:36:12.639Z,20.54
2023-02-15T04:37:12.605Z,20.54
2023-02-15T04:38:12.597Z,20.54
2023-02-15T04:39:12.579Z,20.51
2023-02-15T04:40:12.556Z,20.51
2023-02-15T04:41:12.563Z,20.50
2023-02-15T04:42:12.561Z,20.50
2023-02-15T04:43:12.541Z,20.50
2023-02-15T04:44:12.513Z,20.50
2023-02-15T04:45:12.546Z,20.48
2023-02-15T04:46:12.524Z,20.48
2023-02-15T04:47:12.539Z,20.48
2023-02-15T04:48:12.474Z,20.46
2023-02-15T04:49:12.478Z,20.50
2023-02-15T04:50:12.455Z,20.44
2023-02-15T04:51:12.490Z,20.46
2023-02-15T04:52:12.501Z,20.48
2023-02-15T04:53:12.585Z,20.44
2023-02-15T04:54:12.406Z,20.44
2023-02-15T04:55:12.441Z,20.44
2023-02-15T04:56:12.385Z,20.46
2023-02-15T04:57:12.390Z,20.44
2023-02-15T04:58:12.387Z,20.44
2023-02-15T04:59:12.389Z,20.42
2023-02-15T05:00:12.346Z,20.44
2023-02-15T05:01:12.372Z,20.44
2023-02-15T05:02:12.327Z,20.44
2023-02-15T05:03:12.339Z,20.42
2023-02-15T05:04:12.389Z,20.42
2023-02-15T05:05:12.370Z,20.42
2023-02-15T05:06:12.351Z,20.42
2023-02-15T05:07:12.362Z,20.42
2023-02-15T05:08:12.318Z,20.41
2023-02-15T05:09:12.317Z,20.41
2023-02-15T05:10:12.287Z,20.41
2023-02-15T05:11:12.295Z,20.40
2023-02-15T05:12:12.278Z,20.41
2023-02-15T05:13:12.312Z,20.40
2023-02-15T05:14:12.246Z,20.42
2023-02-15T05:15:12.254Z,20.40
2023-02-15T05:16:12.268Z,20.42
2023-02-15T05:17:12.238Z,20.41
2023-02-15T05:18:12.219Z,20.41
2023-02-15T05:19:12.747Z,20.41
2023-02-15T05:20:12.186Z,20.40
2023-02-15T05:21:12.183Z,20.40
2023-02-15T05:22:12.190Z,20.40
2023-02-15T05:23:12.165Z,20.40
2023-02-15T05:24:12.140Z,20.41
2023-02-15T05:25:12.141Z,20.42
2023-02-15T05:26:12.132Z,20.40
2023-02-15T05:27:12.134Z,20.40
2023-02-15T05:28:12.130Z,20.41
2023-02-15T05:29:12.116Z,20.41
2023-02-15T05:30:12.263Z,20.40
2023-02-15T05:31:12.305Z,20.40
2023-02-15T05:32:12.142Z,20.40
2023-02-15T05:33:12.058Z,20.40
2023-02-15T05:34:12.038Z,20.37
2023-02-15T05:35:12.047Z,20.38
2023-02-15T05:36:12.064Z,20.38
2023-02-15T05:37:12.044Z,20.38
2023-02-15T05:38:11.997Z,20.35
2023-02-15T05:39:12.003Z,20.40
2023-02-15T05:40:11.993Z,20.37
2023-02-15T05:41:11.999Z,20.38
2023-02-15T05:42:12.048Z,20.38
2023-02-15T05:43:11.972Z,20.40
2023-02-15T05:44:11.963Z,20.38
2023-02-15T05:45:11.933Z,20.37
2023-02-15T05:46:11.958Z,20.37
2023-02-15T05:47:11.918Z,20.38
2023-02-15T05:48:11.884Z,20.38
2023-02-15T05:49:11.894Z,20.38
2023-02-15T05:50:11.889Z,20.35
2023-02-15T05:51:11.868Z,20.37
2023-02-15T05:52:11.842Z,20.37
2023-02-15T05:53:11.841Z,20.37
2023-02-15T05:54:11.825Z,20.37
2023-02-15T05:55:11.851Z,20.37
2023-02-15T05:56:11.830Z,20.35
2023-02-15T05:57:11.858Z,20.35
2023-02-15T05:58:11.775Z,20.37
2023-02-15T05:59:11.804Z,20.35
2023-02-15T06:00:11.764Z,20.35
2023-02-15T06:01:11.766Z,20.37
2023-02-15T06:02:11.795Z,20.35
2023-02-15T06:03:11.790Z,20.37
2023-02-15T06:04:11.710Z,20.37
2023-02-15T06:05:11.721Z,20.37
2023-02-15T06:06:11.697Z,20.37
2023-02-15T06:07:13.211Z,20.37
2023-02-15T06:08:11.699Z,20.35
2023-02-15T06:09:11.680Z,20.37
2023-02-15T06:10:11.668Z,20.35
2023-02-15T06:11:11.640Z,20.35
2023-02-15T06:12:11.642Z,20.38
2023-02-15T06:13:11.615Z,20.35
2023-02-15T06:14:11.643Z,20.35
2023-02-15T06:15:11.598Z,20.35
2023-02-15T06:16:11.757Z,20.34
2023-02-15T06:17:11.605Z,20.33
2023-02-15T06:18:11.580Z,20.34
2023-02-15T06:19:11.586Z,20.35
2023-02-15T06:20:11.561Z,20.34
2023-02-15T06:21:11.534Z,20.35
2023-02-15T06:22:11.555Z,20.34
2023-02-15T06:23:11.512Z,20.35
2023-02-15T06:24:11.515Z,20.34
2023-02-15T06:25:11.485Z,20.34
2023-02-15T06:26:11.490Z,20.34
2023-02-15T06:27:11.465Z,20.34
2023-02-15T06:28:11.485Z,20.33
2023-02-15T06:29:11.456Z,20.33
2023-02-15T06:30:11.549Z,20.34
2023-02-15T06:31:11.548Z,20.34
2023-02-15T06:32:11.483Z,20.34
2023-02-15T06:33:11.477Z,20.33
2023-02-15T06:34:11.402Z,20.34
2023-02-15T06:35:11.399Z,20.34
2023-02-15T06:36:11.389Z,20.33
2023-02-15T06:37:11.375Z,20.34
2023-02-15T06:38:11.378Z,20.34
2023-02-15T06:39:12.368Z,20.33
2023-02-15T06:40:11.335Z,20.31
2023-02-15T06:41:11.333Z,20.34
2023-02-15T06:42:11.328Z,20.31
2023-02-15T06:43:11.304Z,20.33
2023-02-15T06:44:11.307Z,20.34
2023-02-15T06:45:11.296Z,20.33
2023-02-15T06:46:11.298Z,20.33
2023-02-15T06:47:11.251Z,20.31
2023-02-15T06:48:11.295Z,20.33
2023-02-15T06:49:11.245Z,20.31
2023-02-15T06:50:11.237Z,20.33
2023-02-15T06:51:11.219Z,20.31
2023-02-15T06:52:13.957Z,20.33
2023-02-15T06:53:11.188Z,20.31
2023-02-15T06:54:11.211Z,20.31
2023-02-15T06:55:11.169Z,20.33
2023-02-15T06:56:11.170Z,20.33
2023-02-15T06:57:11.151Z,20.33
2023-02-15T06:58:11.152Z,20.31
2023-02-15T06:59:11.129Z,20.30
2023-02-15T07:00:11.157Z,20.33
2023-02-15T07:01:11.164Z,20.31
2023-02-15T07:02:11.115Z,20.30
2023-02-15T07:03:11.081Z,20.31
2023-02-15T07:04:11.091Z,20.31
2023-02-15T07:05:11.140Z,20.31
2023-02-15T07:06:11.082Z,20.30
2023-02-15T07:07:11.021Z,20.30
2023-02-15T07:08:11.043Z,20.30
2023-02-15T07:09:11.016Z,20.30
2023-02-15T07:10:11.025Z,20.31
2023-02-15T07:11:10.998Z,20.30
2023-02-15T07:12:11.013Z,20.27
2023-02-15T07:13:10.993Z,20.31
2023-02-15T07:14:10.943Z,20.30
2023-02-15T07:15:10.912Z,20.30
2023-02-15T07:16:11.016Z,20.30
2023-02-15T07:17:27.408Z,20.30
2023-02-15T07:18:10.919Z,20.30
2023-02-15T07:19:10.850Z,20.30
2023-02-15T07:20:10.855Z,20.31
2023-02-15T07:21:10.871Z,20.30
2023-02-15T07:22:10.836Z,20.30
2023-02-15T07:23:10.849Z,20.30
2023-02-15T07:24:10.812Z,20.31
2023-02-15T07:25:10.847Z,20.27
2023-02-15T07:26:10.794Z,20.31
2023-02-15T07:27:12.233Z,20.31
2023-02-15T07:28:10.768Z,20.30
2023-02-15T07:29:10.778Z,20.31
2023-02-15T07:30:10.809Z,20.26
2023-02-15T07:31:10.739Z,20.25
2023-02-15T07:32:10.754Z,20.19
2023-02-15T07:33:10.700Z,20.12
2023-02-15T07:34:10.737Z,20.02
2023-02-15T07:35:10.708Z,19.95
2023-02-15T07:36:10.692Z,19.89
2023-02-15T07:37:10.657Z,19.80
2023-02-15T07:38:10.688Z,19.72
2023-02-15T07:39:10.638Z,19.64
2023-02-15T07:40:10.641Z,19.58
2023-02-15T07:41:10.611Z,19.52
2023-02-15T07:42:10.623Z,19.45
2023-02-15T07:43:10.649Z,19.39
2023-02-15T07:44:10.608Z,19.34
2023-02-15T07:45:10.574Z,19.28
2023-02-15T07:46:10.629Z,19.23
2023-02-15T07:47:10.550Z,19.20
2023-02-15T07:48:10.614Z,19.12
2023-02-15T07:49:10.646Z,19.07
2023-02-15T07:50:10.536Z,19.07
2023-02-15T07:51:10.510Z,19.09
2023-02-15T07:52:10.592Z,19.09
2023-02-15T07:53:10.493Z,19.13
2023-02-15T07:54:10.523Z,19.17
2023-02-15T07:55:10.479Z,19.23
2023-02-15T07:56:10.491Z,19.28
2023-02-15T07:57:10.447Z,19.32
2023-02-15T07:58:10.450Z,19.39
2023-02-15T07:59:10.439Z,19.43
2023-02-15T08:00:10.459Z,19.47
2023-02-15T08:01:10.496Z,19.53
2023-02-15T08:02:10.409Z,19.58
2023-02-15T08:03:10.814Z,19.62
2023-02-15T08:04:10.390Z,19.67
2023-02-15T08:05:10.361Z,19.70
2023-02-15T08:06:10.395Z,19.71
2023-02-15T08:07:10.337Z,19.76
2023-02-15T08:08:10.349Z,19.79
2023-02-15T08:09:10.326Z,19.80
2023-02-15T08:10:10.327Z,19.85
2023-02-15T08:11:10.296Z,19.86
2023-02-15T08:12:10.347Z,19.87
2023-02-15T08:13:10.308Z,19.92
2023-02-15T08:14:10.332Z,19.94
2023-02-15T08:15:10.264Z,19.95
2023-02-15T08:16:12.973Z,20.00
2023-02-15T08:17:10.281Z,20.00
2023-02-15T08:18:10.251Z,20.01
2023-02-15T08:19:10.251Z,20.02
2023-02-15T08:20:10.220Z,20.01
2023-02-15T08:21:10.193Z,20.04
2023-02-15T08:22:10.293Z,20.05
2023-02-15T08:23:10.204Z,20.07
2023-02-15T08:24:10.236Z,20.07
2023-02-15T08:25:10.181Z,20.10
2023-02-15T08:26:10.192Z,20.10
2023-02-15T08:27:10.180Z,20.13
2023-02-15T08:28:10.141Z,20.13
2023-02-15T08:29:10.113Z,20.13
2023-02-15T08:30:10.241Z,20.15
2023-02-15T08:31:10.204Z,20.16
2023-02-15T08:32:10.322Z,20.16
2023-02-15T08:33:10.092Z,20.17
2023-02-15T08:34:10.099Z,20.17
2023-02-15T08:35:10.045Z,20.19
2023-02-15T08:36:10.052Z,20.19
2023-02-15T08:37:10.026Z,20.19
2023-02-15T08:38:10.196Z,20.20
2023-02-15T08:39:10.009Z,20.22
2023-02-15T08:40:10.052Z,20.23
2023-02-15T08:41:09.994Z,20.22
2023-02-15T08:42:09.989Z,20.25
2023-02-15T08:43:09.954Z,20.25
2023-02-15T08:44:09.969Z,20.23
2023-02-15T08:45:09.943Z,20.25
2023-02-15T08:46:10.055Z,20.25
2023-02-15T08:47:09.933Z,20.26
2023-02-15T08:48:09.926Z,20.25
2023-02-15T08:49:09.901Z,20.26
2023-02-15T08:50:09.900Z,20.27
2023-02-15T08:51:09.875Z,20.27
2023-02-15T08:52:09.895Z,20.26
2023-02-15T08:54:00.689Z,20.30
2023-02-15T08:55:01.714Z,20.27
2023-02-15T08:56:01.659Z,20.30
2023-02-15T08:57:01.722Z,20.27
2023-02-15T08:58:01.647Z,20.27
2023-02-15T08:59:01.635Z,20.31
2023-02-15T09:00:01.621Z,20.31
2023-02-15T09:01:02.020Z,20.31
2023-02-15T09:02:01.635Z,20.30
2023-02-15T09:03:01.607Z,20.31
2023-02-15T09:04:01.583Z,20.33
2023-02-15T09:05:01.572Z,20.34
2023-02-15T09:06:01.546Z,20.34
2023-02-15T09:07:01.586Z,20.34
2023-02-15T09:08:01.526Z,20.34
2023-02-15T09:09:01.531Z,20.33
2023-02-15T09:10:01.508Z,20.34
2023-02-15T09:11:01.754Z,20.34
2023-02-15T09:12:01.475Z,20.34
2023-02-15T09:13:01.509Z,20.34
2023-02-15T09:14:01.483Z,20.34
2023-02-15T09:15:01.470Z,20.34
2023-02-15T09:16:01.436Z,20.34
2023-02-15T09:17:01.435Z,20.35
2023-02-15T09:18:01.414Z,20.35
2023-02-15T09:19:01.448Z,20.34
2023-02-15T09:20:01.413Z,20.35
2023-02-15T09:21:01.690Z,20.34
2023-02-15T09:22:01.378Z,20.35
2023-02-15T09:23:01.390Z,20.35
2023-02-15T09:24:01.356Z,20.34
2023-02-15T09:25:01.363Z,20.34
2023-02-15T09:26:01.350Z,20.33
2023-02-15T09:27:01.327Z,20.35
2023-02-15T09:28:01.312Z,20.37
2023-02-15T09:29:01.313Z,20.35
2023-02-15T09:30:01.348Z,20.35
2023-02-15T09:31:01.660Z,20.35
2023-02-15T09:32:01.329Z,20.35
2023-02-15T09:33:01.275Z,20.37
2023-02-15T09:34:01.244Z,20.34
2023-02-15T09:35:01.246Z,20.35
2023-02-15T09:36:01.221Z,20.37
2023-02-15T09:37:01.245Z,20.37
2023-02-15T09:38:01.198Z,20.37
2023-02-15T09:39:01.209Z,20.37
2023-02-15T09:40:01.211Z,20.35
2023-02-15T09:41:01.608Z,20.37
2023-02-15T09:42:01.164Z,20.37
2023-02-15T09:43:01.206Z,20.35
2023-02-15T09:44:01.138Z,20.37
2023-02-15T09:45:01.160Z,20.38
2023-02-15T09:46:01.134Z,20.38
2023-02-15T09:47:01.128Z,20.38
2023-02-15T09:48:01.126Z,20.38
2023-02-15T09:49:01.103Z,20.38
2023-02-15T09:50:01.077Z,20.37
2023-02-15T09:51:01.468Z,20.40
2023-02-15T09:52:01.058Z,20.38
2023-02-15T09:53:01.082Z,20.40
2023-02-15T09:54:01.038Z,20.38
2023-02-15T09:55:01.069Z,20.38
2023-02-15T09:56:01.223Z,20.38
2023-02-15T09:57:01.034Z,20.40
2023-02-15T09:58:01.013Z,20.38
2023-02-15T09:59:01.000Z,20.38
2023-02-15T10:00:01.017Z,20.40
2023-02-15T10:01:01.401Z,20.38
2023-02-15T10:02:00.950Z,20.41
2023-02-15T10:03:00.980Z,20.40
2023-02-15T10:04:00.936Z,20.41
2023-02-15T10:05:00.986Z,20.40
2023-02-15T10:06:00.912Z,20.40
2023-02-15T10:07:00.910Z,20.37
2023-02-15T10:08:00.902Z,20.38
2023-02-15T10:09:00.895Z,20.38
2023-02-15T10:10:00.870Z,20.38
2023-02-15T10:11:01.235Z,20.42
2023-02-15T10:12:00.860Z,20.40
2023-02-15T10:13:00.859Z,20.40
2023-02-15T10:14:00.830Z,20.40
2023-02-15T10:15:00.828Z,20.40
2023-02-15T10:16:00.817Z,20.40
2023-02-15T10:17:00.894Z,20.40
2023-02-15T10:18:00.793Z,20.40
2023-02-15T10:19:00.786Z,20.41
2023-02-15T10:20:00.787Z,20.42
2023-02-15T10:21:01.216Z,20.40
2023-02-15T10:22:00.762Z,20.44
2023-02-15T10:23:00.751Z,20.44
2023-02-15T10:24:00.742Z,20.41
2023-02-15T10:25:00.750Z,20.42
2023-02-15T10:26:01.049Z,20.42
2023-02-15T10:27:00.700Z,20.42
2023-02-15T10:28:00.699Z,20.44
2023-02-15T10:29:00.674Z,20.42
2023-02-15T10:30:00.707Z,20.42
2023-02-15T10:31:01.092Z,20.44
2023-02-15T10:32:00.737Z,20.42
2023-02-15T10:33:00.628Z,20.42
2023-02-15T10:34:00.607Z,20.42
2023-02-15T10:35:00.617Z,20.41
2023-02-15T10:36:00.585Z,20.42
2023-02-15T10:37:00.613Z,20.42
2023-02-15T10:38:00.613Z,20.42
2023-02-15T10:39:00.568Z,20.42
2023-02-15T10:40:00.547Z,20.42
2023-02-15T10:41:01.154Z,20.44
2023-02-15T10:42:00.520Z,20.44
2023-02-15T10:43:00.530Z,20.44
2023-02-15T10:44:00.523Z,20.44
2023-02-15T10:45:00.511Z,20.42
2023-02-15T10:46:00.530Z,20.42
2023-02-15T10:47:00.489Z,20.44
2023-02-15T10:48:00.509Z,20.42
2023-02-15T10:49:00.470Z,20.44
2023-02-15T10:50:00.460Z,20.44
2023-02-15T10:51:00.774Z,20.44
2023-02-15T10:52:00.413Z,20.44
2023-02-15T10:53:00.416Z,20.46
2023-02-15T10:54:00.412Z,20.44
2023-02-15T10:55:00.406Z,20.46
2023-02-15T10:56:00.368Z,20.44
2023-02-15T10:57:00.393Z,20.46
2023-02-15T10:58:01.377Z,20.44
2023-02-15T10:59:00.385Z,20.44
2023-02-15T11:00:00.341Z,20.44
2023-02-15T11:01:00.809Z,20.48
2023-02-15T11:02:00.330Z,20.44
2023-02-15T11:03:00.305Z,20.44
2023-02-15T11:04:00.319Z,20.44
2023-02-15T11:05:00.342Z,20.48
2023-02-15T11:06:00.282Z,20.44
2023-02-15T11:07:00.279Z,20.48
2023-02-15T11:08:00.280Z,20.48
2023-02-15T11:09:00.238Z,20.46
2023-02-15T11:10:00.261Z,20.48
2023-02-15T11:11:00.879Z,20.48
2023-02-15T11:12:00.223Z,20.48
2023-02-15T11:13:00.226Z,20.44
2023-02-15T11:14:00.223Z,20.46
2023-02-15T11:15:00.197Z,20.48
2023-02-15T11:16:00.280Z,20.48
2023-02-15T11:17:00.180Z,20.48
2023-02-15T11:18:00.156Z,20.46
2023-02-15T11:19:00.135Z,20.50
2023-02-15T11:20:00.133Z,20.48
2023-02-15T11:21:00.568Z,20.48
2023-02-15T11:22:00.128Z,20.48
2023-02-15T11:23:00.112Z,20.50
2023-02-15T11:24:00.108Z,20.50
2023-02-15T11:25:00.088Z,20.48
2023-02-15T11:26:00.156Z,20.48
2023-02-15T11:27:00.109Z,20.50
2023-02-15T11:28:00.101Z,20.48
2023-02-15T11:29:00.027Z,20.50
2023-02-15T11:30:00.120Z,20.46
2023-02-15T11:31:00.190Z,20.51
2023-02-15T11:32:00.172Z,20.50
2023-02-15T11:33:00.004Z,20.51
2023-02-15T11:33:59.985Z,20.50
2023-02-15T11:34:59.966Z,20.50
2023-02-15T11:35:59.968Z,20.50
2023-02-15T11:36:59.943Z,20.50
2023-02-15T11:37:59.972Z,20.51
2023-02-15T11:38:59.924Z,20.48
2023-02-15T11:39:59.937Z,20.50
2023-02-15T11:40:59.997Z,20.48
2023-02-15T11:41:59.909Z,20.50
2023-02-15T11:42:59.908Z,20.50
2023-02-15T11:43:59.898Z,20.51
2023-02-15T11:44:59.864Z,20.50
2023-02-15T11:45:59.882Z,20.48
2023-02-15T11:46:59.838Z,20.50
2023-02-15T11:47:59.869Z,20.50
2023-02-15T11:48:59.822Z,20.50
2023-02-15T11:49:59.888Z,20.51
2023-02-15T11:50:59.961Z,20.48
2023-02-15T11:51:59.803Z,20.50
2023-02-15T11:52:59.795Z,20.51
2023-02-15T11:53:59.824Z,20.51
2023-02-15T11:54:59.748Z,20.51
2023-02-15T11:55:59.752Z,20.51
2023-02-15T11:56:59.737Z,20.51
2023-02-15T11:57:59.739Z,20.53
2023-02-15T11:58:59.708Z,20.53
2023-02-15T11:59:59.758Z,20.53
2023-02-15T12:00:59.702Z,20.51
2023-02-15T12:01:59.695Z,20.54
2023-02-15T12:02:59.764Z,20.54
2023-02-15T12:03:59.766Z,20.54
2023-02-15T12:04:59.645Z,20.54
2023-02-15T12:05:59.677Z,20.51
2023-02-15T12:07:02.850Z,20.54
2023-02-15T12:07:59.645Z,20.53
2023-02-15T12:08:59.602Z,20.53
2023-02-15T12:09:59.608Z,20.54
2023-02-15T12:10:59.943Z,20.54
2023-02-15T12:11:59.588Z,20.53
2023-02-15T12:12:59.578Z,20.54
2023-02-15T12:13:59.566Z,20.54
2023-02-15T12:14:59.537Z,20.56
2023-02-15T12:15:59.594Z,20.56
2023-02-15T12:16:59.550Z,20.56
2023-02-15T12:17:59.515Z,20.56
2023-02-15T12:18:59.499Z,20.56
2023-02-15T12:19:59.511Z,20.54
2023-02-15T12:20:59.543Z,20.53
2023-02-15T12:21:59.476Z,20.56
2023-02-15T12:22:59.472Z,20.57
2023-02-15T12:23:59.465Z,20.56
2023-02-15T12:24:59.442Z,20.54
2023-02-15T12:25:59.449Z,20.56
2023-02-15T12:26:59.408Z,20.56
2023-02-15T12:27:59.452Z,20.54
2023-02-15T12:28:59.392Z,20.56
2023-02-15T12:29:59.454Z,20.57
2023-02-15T12:30:59.602Z,20.56
2023-02-15T12:31:59.511Z,20.57
2023-02-15T12:32:59.359Z,20.56
2023-02-15T12:33:59.371Z,20.57
2023-02-15T12:35:01.368Z,20.57
2023-02-15T12:35:59.390Z,20.57
2023-02-15T12:36:59.295Z,20.58
2023-02-15T12:37:59.311Z,20.57
2023-02-15T12:38:59.606Z,20.57
2023-02-15T12:39:59.286Z,20.56
2023-02-15T12:40:59.259Z,20.57
2023-02-15T12:41:59.261Z,20.56
2023-02-15T12:42:59.324Z,20.56
2023-02-15T12:43:59.234Z,20.57
2023-02-15T12:44:59.221Z,20.56
2023-02-15T12:45:59.239Z,20.58
2023-02-15T12:46:59.325Z,20.57
2023-02-15T12:47:59.193Z,20.57
2023-02-15T12:48:59.190Z,20.56
2023-02-15T12:49:59.178Z,20.57
2023-02-15T12:50:59.155Z,20.56
2023-02-15T12:51:59.156Z,20.56
2023-02-15T12:52:59.134Z,20.57
2023-02-15T12:53:59.166Z,20.57